sensor_id;sensor_type;location;lat;lon;timestamp;temperature;humidity
18047;DHT22;9148;51.454;13.862;2023-03-03T00:01:28;0.90;99.90
18047;DHT22;9148;51.454;13.862;2023-03-03T00:03:56;0.70;99.90
18047;DHT22;9148;51.454;13.862;2023-03-03T00:06:22;0.90;99.90
18047;DHT22;9148;51.454;13.862;2023-03-03T00:08:49;1.30;99.90
18047;DHT22;9148;51.454;13.862;2023-03-03T00:11:15;0.90;99.90
18047;DHT22;9148;51.454;13.862;2023-03-03T00:13:50;0.90;99.90
18047;DHT22;9148;51.454;13.862;2023-03-03T00:16:24;0.80;99.90
18047;DHT22;9148;51.454;13.862;2023-03-03T00:18:50;0.70;99.90
18047;DHT22;9148;51.454;13.862;2023-03-03T00:21:29;0.80;99.90
18047;DHT22;9148;51.454;13.862;2023-03-03T00:24:37;0.80;99.90
18047;DHT22;9148;51.454;13.862;2023-03-03T00:27:16;0.70;99.90
18047;DHT22;9148;51.454;13.862;2023-03-03T00:29:47;0.70;99.90
18047;DHT22;9148;51.454;13.862;2023-03-03T00:32:21;0.60;99.90
18047;DHT22;9148;51.454;13.862;2023-03-03T00:35:23;0.60;99.90
18047;DHT22;9148;51.454;13.862;2023-03-03T00:38:01;0.50;99.90
18047;DHT22;9148;51.454;13.862;2023-03-03T00:40:37;0.50;99.90
18047;DHT22;9148;51.454;13.862;2023-03-03T00:43:24;0.50;99.90
18047;DHT22;9148;51.454;13.862;2023-03-03T00:45:55;0.70;99.90
18047;DHT22;9148;51.454;13.862;2023-03-03T00:51:01;0.60;99.90
18047;DHT22;9148;51.454;13.862;2023-03-03T00:53:35;0.50;99.90
18047;DHT22;9148;51.454;13.862;2023-03-03T00:56:00;0.50;99.90
18047;DHT22;9148;51.454;13.862;2023-03-03T00:58:26;0.50;99.90
18047;DHT22;9148;51.454;13.862;2023-03-03T01:00:53;0.50;99.90
18047;DHT22;9148;51.454;13.862;2023-03-03T01:03:23;0.50;99.90
18047;DHT22;9148;51.454;13.862;2023-03-03T01:05:50;0.40;99.90
18047;DHT22;9148;51.454;13.862;2023-03-03T01:08:16;0.60;99.90
18047;DHT22;9148;51.454;13.862;2023-03-03T01:11:28;0.50;99.90
18047;DHT22;9148;51.454;13.862;2023-03-03T01:13:42;0.50;99.90
18047;DHT22;9148;51.454;13.862;2023-03-03T01:16:09;0.50;99.90
18047;DHT22;9148;51.454;13.862;2023-03-03T01:18:34;0.60;99.90
18047;DHT22;9148;51.454;13.862;2023-03-03T01:21:01;0.50;99.90
18047;DHT22;9148;51.454;13.862;2023-03-03T01:23:27;0.30;99.90
18047;DHT22;9148;51.454;13.862;2023-03-03T01:25:52;0.30;99.90
18047;DHT22;9148;51.454;13.862;2023-03-03T01:28:18;0.40;99.90
18047;DHT22;9148;51.454;13.862;2023-03-03T01:30:44;0.30;99.90
18047;DHT22;9148;51.454;13.862;2023-03-03T01:33:10;0.30;99.90
18047;DHT22;9148;51.454;13.862;2023-03-03T01:35:36;0.20;99.90
18047;DHT22;9148;51.454;13.862;2023-03-03T01:38:02;1.20;99.90
18047;DHT22;9148;51.454;13.862;2023-03-03T01:40:29;0.30;99.90
18047;DHT22;9148;51.454;13.862;2023-03-03T01:42:57;0.20;99.90
18047;DHT22;9148;51.454;13.862;2023-03-03T01:45:27;0.20;99.90
18047;DHT22;9148;51.454;13.862;2023-03-03T01:48:03;0.20;99.90
18047;DHT22;9148;51.454;13.862;2023-03-03T01:53:14;0.10;99.90
18047;DHT22;9148;51.454;13.862;2023-03-03T01:55:44;0.20;99.90
18047;DHT22;9148;51.454;13.862;2023-03-03T01:58:15;0.10;99.90
18047;DHT22;9148;51.454;13.862;2023-03-03T02:00:52;0.10;99.90
18047;DHT22;9148;51.454;13.862;2023-03-03T02:03:21;0.10;99.90
18047;DHT22;9148;51.454;13.862;2023-03-03T02:05:49;0.10;99.90
18047;DHT22;9148;51.454;13.862;2023-03-03T02:08:20;0.10;99.90
18047;DHT22;9148;51.454;13.862;2023-03-03T02:10:55;0.10;99.90
18047;DHT22;9148;51.454;13.862;2023-03-03T02:13:21;-0.10;99.90
18047;DHT22;9148;51.454;13.862;2023-03-03T02:15:47;0.20;99.90
18047;DHT22;9148;51.454;13.862;2023-03-03T02:18:15;0.10;99.90
18047;DHT22;9148;51.454;13.862;2023-03-03T02:21:01;0.10;99.90
18047;DHT22;9148;51.454;13.862;2023-03-03T02:26:09;-0.90;99.90
18047;DHT22;9148;51.454;13.862;2023-03-03T02:28:38;0.00;99.90
18047;DHT22;9148;51.454;13.862;2023-03-03T02:31:10;0.10;99.90
18047;DHT22;9148;51.454;13.862;2023-03-03T02:33:43;0.10;99.90
18047;DHT22;9148;51.454;13.862;2023-03-03T02:36:17;0.10;99.90
18047;DHT22;9148;51.454;13.862;2023-03-03T02:41:59;0.00;99.90
18047;DHT22;9148;51.454;13.862;2023-03-03T02:44:31;0.00;99.90
18047;DHT22;9148;51.454;13.862;2023-03-03T02:46:58;0.10;99.90
18047;DHT22;9148;51.454;13.862;2023-03-03T02:49:29;-0.10;99.90
18047;DHT22;9148;51.454;13.862;2023-03-03T02:52:00;0.00;99.90
18047;DHT22;9148;51.454;13.862;2023-03-03T02:54:28;0.00;99.90
18047;DHT22;9148;51.454;13.862;2023-03-03T02:56:55;0.00;99.90
18047;DHT22;9148;51.454;13.862;2023-03-03T02:59:21;0.00;99.90
18047;DHT22;9148;51.454;13.862;2023-03-03T03:01:48;0.00;99.90
18047;DHT22;9148;51.454;13.862;2023-03-03T03:04:17;0.00;99.90
18047;DHT22;9148;51.454;13.862;2023-03-03T03:06:44;0.00;99.90
18047;DHT22;9148;51.454;13.862;2023-03-03T03:09:11;0.00;99.90
18047;DHT22;9148;51.454;13.862;2023-03-03T03:11:37;0.00;99.90
18047;DHT22;9148;51.454;13.862;2023-03-03T03:14:05;0.00;99.90
18047;DHT22;9148;51.454;13.862;2023-03-03T03:16:32;0.00;99.90
18047;DHT22;9148;51.454;13.862;2023-03-03T03:18:59;-0.10;99.90
18047;DHT22;9148;51.454;13.862;2023-03-03T03:21:25;-0.10;99.90
18047;DHT22;9148;51.454;13.862;2023-03-03T03:23:51;-0.10;99.90
18047;DHT22;9148;51.454;13.862;2023-03-03T03:26:17;-0.20;99.90
18047;DHT22;9148;51.454;13.862;2023-03-03T03:28:45;-0.20;99.90
18047;DHT22;9148;51.454;13.862;2023-03-03T03:31:11;-0.10;99.90
18047;DHT22;9148;51.454;13.862;2023-03-03T03:33:37;-0.20;99.90
18047;DHT22;9148;51.454;13.862;2023-03-03T03:36:04;-0.10;99.90
18047;DHT22;9148;51.454;13.862;2023-03-03T03:38:31;-0.10;99.90
18047;DHT22;9148;51.454;13.862;2023-03-03T03:40:57;-0.10;99.90
18047;DHT22;9148;51.454;13.862;2023-03-03T03:43:24;-0.10;99.90
18047;DHT22;9148;51.454;13.862;2023-03-03T03:45:50;-0.10;99.90
18047;DHT22;9148;51.454;13.862;2023-03-03T03:48:16;-0.20;99.90
18047;DHT22;9148;51.454;13.862;2023-03-03T03:50:43;-0.10;99.90
18047;DHT22;9148;51.454;13.862;2023-03-03T03:53:09;-0.20;99.90
18047;DHT22;9148;51.454;13.862;2023-03-03T03:55:35;-0.10;99.90
18047;DHT22;9148;51.454;13.862;2023-03-03T03:58:00;-0.40;99.90
18047;DHT22;9148;51.454;13.862;2023-03-03T04:00:26;-0.20;99.90
18047;DHT22;9148;51.454;13.862;2023-03-03T04:02:52;-0.30;99.90
18047;DHT22;9148;51.454;13.862;2023-03-03T04:05:18;1.00;99.90
18047;DHT22;9148;51.454;13.862;2023-03-03T04:07:43;0.70;99.90
18047;DHT22;9148;51.454;13.862;2023-03-03T04:10:10;-0.30;99.90
18047;DHT22;9148;51.454;13.862;2023-03-03T04:12:36;-0.30;99.90
18047;DHT22;9148;51.454;13.862;2023-03-03T04:15:06;-0.20;99.90
18047;DHT22;9148;51.454;13.862;2023-03-03T04:17:33;-0.30;99.90
18047;DHT22;9148;51.454;13.862;2023-03-03T04:19:59;-0.30;99.90
18047;DHT22;9148;51.454;13.862;2023-03-03T04:22:26;-0.30;99.90
18047;DHT22;9148;51.454;13.862;2023-03-03T04:24:52;-0.20;99.90
18047;DHT22;9148;51.454;13.862;2023-03-03T04:27:18;-0.30;99.90
18047;DHT22;9148;51.454;13.862;2023-03-03T04:29:44;-0.30;99.90
18047;DHT22;9148;51.454;13.862;2023-03-03T04:32:10;-0.20;99.90
18047;DHT22;9148;51.454;13.862;2023-03-03T04:34:35;-0.30;99.90
18047;DHT22;9148;51.454;13.862;2023-03-03T04:37:01;-0.10;99.90
18047;DHT22;9148;51.454;13.862;2023-03-03T04:39:27;-0.10;99.90
18047;DHT22;9148;51.454;13.862;2023-03-03T04:41:54;-0.10;99.90
18047;DHT22;9148;51.454;13.862;2023-03-03T04:44:20;-0.10;99.90
18047;DHT22;9148;51.454;13.862;2023-03-03T04:46:46;-0.10;99.90
18047;DHT22;9148;51.454;13.862;2023-03-03T04:49:12;0.00;99.90
18047;DHT22;9148;51.454;13.862;2023-03-03T04:51:37;0.00;99.90
18047;DHT22;9148;51.454;13.862;2023-03-03T04:54:03;0.00;99.90
18047;DHT22;9148;51.454;13.862;2023-03-03T04:56:30;0.00;99.90
18047;DHT22;9148;51.454;13.862;2023-03-03T04:58:56;0.10;99.90
18047;DHT22;9148;51.454;13.862;2023-03-03T05:01:22;0.00;99.90
18047;DHT22;9148;51.454;13.862;2023-03-03T05:03:47;0.10;99.90
18047;DHT22;9148;51.454;13.862;2023-03-03T05:06:13;0.00;99.90
18047;DHT22;9148;51.454;13.862;2023-03-03T05:08:39;0.00;99.90
18047;DHT22;9148;51.454;13.862;2023-03-03T05:11:07;-0.10;99.90
18047;DHT22;9148;51.454;13.862;2023-03-03T05:13:33;0.00;99.90
18047;DHT22;9148;51.454;13.862;2023-03-03T05:15:59;0.00;99.90
18047;DHT22;9148;51.454;13.862;2023-03-03T05:18:25;-0.20;99.90
18047;DHT22;9148;51.454;13.862;2023-03-03T05:20:52;-0.20;99.90
18047;DHT22;9148;51.454;13.862;2023-03-03T05:23:19;-0.20;99.90
18047;DHT22;9148;51.454;13.862;2023-03-03T05:25:49;-0.30;99.90
18047;DHT22;9148;51.454;13.862;2023-03-03T05:28:21;-0.30;99.90
18047;DHT22;9148;51.454;13.862;2023-03-03T05:30:46;-0.50;99.90
18047;DHT22;9148;51.454;13.862;2023-03-03T05:33:14;-0.40;99.90
18047;DHT22;9148;51.454;13.862;2023-03-03T05:35:40;-0.30;99.90
18047;DHT22;9148;51.454;13.862;2023-03-03T05:38:06;-0.40;99.90
18047;DHT22;9148;51.454;13.862;2023-03-03T05:40:31;-0.40;99.90
18047;DHT22;9148;51.454;13.862;2023-03-03T05:42:57;-0.30;99.90
18047;DHT22;9148;51.454;13.862;2023-03-03T05:45:23;-0.30;99.90
18047;DHT22;9148;51.454;13.862;2023-03-03T05:47:50;-0.30;99.90
18047;DHT22;9148;51.454;13.862;2023-03-03T05:50:17;-0.20;99.90
18047;DHT22;9148;51.454;13.862;2023-03-03T05:52:46;-0.20;99.90
18047;DHT22;9148;51.454;13.862;2023-03-03T05:55:12;-0.30;99.90
18047;DHT22;9148;51.454;13.862;2023-03-03T05:57:38;-0.30;99.90
18047;DHT22;9148;51.454;13.862;2023-03-03T06:00:05;-0.30;99.90
18047;DHT22;9148;51.454;13.862;2023-03-03T06:02:31;0.70;99.90
18047;DHT22;9148;51.454;13.862;2023-03-03T06:04:57;-0.40;99.90
18047;DHT22;9148;51.454;13.862;2023-03-03T06:07:22;-0.20;99.90
18047;DHT22;9148;51.454;13.862;2023-03-03T06:09:48;0.50;99.90
18047;DHT22;9148;51.454;13.862;2023-03-03T06:12:14;-0.30;99.90
18047;DHT22;9148;51.454;13.862;2023-03-03T06:14:39;-0.20;99.90
18047;DHT22;9148;51.454;13.862;2023-03-03T06:17:05;-0.30;99.90
18047;DHT22;9148;51.454;13.862;2023-03-03T06:19:31;-0.30;99.90
18047;DHT22;9148;51.454;13.862;2023-03-03T06:21:56;0.50;99.90
18047;DHT22;9148;51.454;13.862;2023-03-03T06:24:22;-0.30;99.90
18047;DHT22;9148;51.454;13.862;2023-03-03T06:26:50;-0.30;99.90
18047;DHT22;9148;51.454;13.862;2023-03-03T06:29:16;-0.20;99.90
18047;DHT22;9148;51.454;13.862;2023-03-03T06:31:42;-0.10;99.90
18047;DHT22;9148;51.454;13.862;2023-03-03T06:34:09;-0.20;99.90
18047;DHT22;9148;51.454;13.862;2023-03-03T06:36:34;-0.20;99.90
18047;DHT22;9148;51.454;13.862;2023-03-03T06:39:00;-0.20;99.90
18047;DHT22;9148;51.454;13.862;2023-03-03T06:41:26;-0.20;99.90
18047;DHT22;9148;51.454;13.862;2023-03-03T06:43:51;-0.20;99.90
18047;DHT22;9148;51.454;13.862;2023-03-03T06:46:17;-0.30;99.90
18047;DHT22;9148;51.454;13.862;2023-03-03T06:48:43;-0.20;99.90
18047;DHT22;9148;51.454;13.862;2023-03-03T06:54:04;-0.20;99.90
18047;DHT22;9148;51.454;13.862;2023-03-03T06:56:35;-0.20;99.90
18047;DHT22;9148;51.454;13.862;2023-03-03T06:59:09;0.00;99.90
18047;DHT22;9148;51.454;13.862;2023-03-03T07:01:37;-0.20;99.90
18047;DHT22;9148;51.454;13.862;2023-03-03T07:04:30;-0.20;99.90
18047;DHT22;9148;51.454;13.862;2023-03-03T07:07:07;-0.10;99.90
18047;DHT22;9148;51.454;13.862;2023-03-03T07:09:38;-0.10;99.90
18047;DHT22;9148;51.454;13.862;2023-03-03T07:12:12;-0.10;99.90
18047;DHT22;9148;51.454;13.862;2023-03-03T07:14:45;0.40;99.90
18047;DHT22;9148;51.454;13.862;2023-03-03T07:17:16;0.00;99.90
18047;DHT22;9148;51.454;13.862;2023-03-03T07:19:44;-0.10;99.90
18047;DHT22;9148;51.454;13.862;2023-03-03T07:22:18;0.00;99.90
18047;DHT22;9148;51.454;13.862;2023-03-03T07:24:50;-0.90;99.90
18047;DHT22;9148;51.454;13.862;2023-03-03T07:27:26;0.00;99.90
18047;DHT22;9148;51.454;13.862;2023-03-03T07:29:54;-0.10;99.90
18047;DHT22;9148;51.454;13.862;2023-03-03T07:32:43;-0.10;99.90
18047;DHT22;9148;51.454;13.862;2023-03-03T07:35:36;-0.20;99.90
18047;DHT22;9148;51.454;13.862;2023-03-03T07:41:02;-0.40;99.90
18047;DHT22;9148;51.454;13.862;2023-03-03T07:43:37;-0.20;99.90
18047;DHT22;9148;51.454;13.862;2023-03-03T07:48:42;-0.20;99.90
18047;DHT22;9148;51.454;13.862;2023-03-03T07:51:29;-0.20;99.90
18047;DHT22;9148;51.454;13.862;2023-03-03T07:54:28;-0.20;99.90
18047;DHT22;9148;51.454;13.862;2023-03-03T07:57:10;-0.10;99.90
18047;DHT22;9148;51.454;13.862;2023-03-03T08:03:03;-0.10;99.90
18047;DHT22;9148;51.454;13.862;2023-03-03T08:05:40;-0.10;99.90
18047;DHT22;9148;51.454;13.862;2023-03-03T08:08:27;0.00;99.90
18047;DHT22;9148;51.454;13.862;2023-03-03T08:11:02;-0.10;99.90
18047;DHT22;9148;51.454;13.862;2023-03-03T08:13:35;0.10;99.90
18047;DHT22;9148;51.454;13.862;2023-03-03T08:18:39;0.00;99.90
18047;DHT22;9148;51.454;13.862;2023-03-03T08:21:12;0.00;99.90
18047;DHT22;9148;51.454;13.862;2023-03-03T08:23:39;0.00;99.90
18047;DHT22;9148;51.454;13.862;2023-03-03T08:26:06;0.00;99.90
18047;DHT22;9148;51.454;13.862;2023-03-03T08:28:31;0.00;99.90
18047;DHT22;9148;51.454;13.862;2023-03-03T08:30:57;0.10;99.90
18047;DHT22;9148;51.454;13.862;2023-03-03T08:33:23;0.10;99.90
18047;DHT22;9148;51.454;13.862;2023-03-03T08:35:49;0.10;99.90
18047;DHT22;9148;51.454;13.862;2023-03-03T08:38:17;-0.80;99.90
18047;DHT22;9148;51.454;13.862;2023-03-03T08:40:45;0.10;99.90
18047;DHT22;9148;51.454;13.862;2023-03-03T08:43:12;0.20;99.90
18047;DHT22;9148;51.454;13.862;2023-03-03T08:45:43;0.20;99.90
18047;DHT22;9148;51.454;13.862;2023-03-03T08:48:15;0.30;99.90
18047;DHT22;9148;51.454;13.862;2023-03-03T08:50:42;0.40;99.90
18047;DHT22;9148;51.454;13.862;2023-03-03T08:53:09;0.40;99.90
18047;DHT22;9148;51.454;13.862;2023-03-03T08:55:36;0.60;99.90
18047;DHT22;9148;51.454;13.862;2023-03-03T08:58:01;0.50;99.90
18047;DHT22;9148;51.454;13.862;2023-03-03T09:00:27;0.70;99.90
18047;DHT22;9148;51.454;13.862;2023-03-03T09:02:54;0.70;99.90
18047;DHT22;9148;51.454;13.862;2023-03-03T09:05:21;0.60;99.90
18047;DHT22;9148;51.454;13.862;2023-03-03T09:07:47;0.70;99.90
18047;DHT22;9148;51.454;13.862;2023-03-03T09:10:16;0.80;99.90
18047;DHT22;9148;51.454;13.862;2023-03-03T09:12:45;0.80;99.90
18047;DHT22;9148;51.454;13.862;2023-03-03T09:15:21;0.80;99.90
18047;DHT22;9148;51.454;13.862;2023-03-03T09:17:52;1.30;99.90
18047;DHT22;9148;51.454;13.862;2023-03-03T09:22:58;0.80;99.90
18047;DHT22;9148;51.454;13.862;2023-03-03T09:25:34;0.80;99.90
18047;DHT22;9148;51.454;13.862;2023-03-03T09:28:02;0.70;99.90
18047;DHT22;9148;51.454;13.862;2023-03-03T09:30:36;0.70;99.90
18047;DHT22;9148;51.454;13.862;2023-03-03T09:33:30;0.80;99.90
18047;DHT22;9148;51.454;13.862;2023-03-03T09:36:11;0.70;99.90
18047;DHT22;9148;51.454;13.862;2023-03-03T09:38:56;1.70;99.90
18047;DHT22;9148;51.454;13.862;2023-03-03T09:41:36;0.80;99.90
18047;DHT22;9148;51.454;13.862;2023-03-03T09:53:13;1.60;99.90
18047;DHT22;9148;51.454;13.862;2023-03-03T09:58:46;1.20;99.90
18047;DHT22;9148;51.454;13.862;2023-03-03T10:01:40;1.30;99.90
18047;DHT22;9148;51.454;13.862;2023-03-03T10:12:56;1.50;99.90
18047;DHT22;9148;51.454;13.862;2023-03-03T10:15:56;1.60;99.90
18047;DHT22;9148;51.454;13.862;2023-03-03T10:18:51;1.60;99.90
18047;DHT22;9148;51.454;13.862;2023-03-03T10:21:48;1.40;99.90
18047;DHT22;9148;51.454;13.862;2023-03-03T10:24:33;1.40;99.90
18047;DHT22;9148;51.454;13.862;2023-03-03T10:27:29;1.50;99.90
18047;DHT22;9148;51.454;13.862;2023-03-03T10:33:25;1.60;99.90
18047;DHT22;9148;51.454;13.862;2023-03-03T10:36:10;1.60;99.90
18047;DHT22;9148;51.454;13.862;2023-03-03T10:44:59;1.80;99.90
18047;DHT22;9148;51.454;13.862;2023-03-03T10:47:58;1.80;99.90
18047;DHT22;9148;51.454;13.862;2023-03-03T10:51:11;1.80;99.90
18047;DHT22;9148;51.454;13.862;2023-03-03T10:59:27;2.00;99.90
18047;DHT22;9148;51.454;13.862;2023-03-03T11:02:20;1.90;99.90
18047;DHT22;9148;51.454;13.862;2023-03-03T11:07:40;2.00;99.90
18047;DHT22;9148;51.454;13.862;2023-03-03T11:10:31;2.00;99.90
18047;DHT22;9148;51.454;13.862;2023-03-03T11:19:30;2.00;99.90
18047;DHT22;9148;51.454;13.862;2023-03-03T11:27:54;2.00;99.90
18047;DHT22;9148;51.454;13.862;2023-03-03T11:30:41;2.00;99.90
18047;DHT22;9148;51.454;13.862;2023-03-03T11:36:10;2.10;99.90
18047;DHT22;9148;51.454;13.862;2023-03-03T11:41:38;2.20;99.90
18047;DHT22;9148;51.454;13.862;2023-03-03T11:47:31;2.20;99.90
18047;DHT22;9148;51.454;13.862;2023-03-03T11:50:02;2.60;99.90
18047;DHT22;9148;51.454;13.862;2023-03-03T11:55:34;2.10;99.90
18047;DHT22;9148;51.454;13.862;2023-03-03T12:01:35;1.90;99.90
18047;DHT22;9148;51.454;13.862;2023-03-03T12:04:09;2.00;99.90
18047;DHT22;9148;51.454;13.862;2023-03-03T12:07:16;1.90;99.90
18047;DHT22;9148;51.454;13.862;2023-03-03T12:13:00;2.50;99.90
18047;DHT22;9148;51.454;13.862;2023-03-03T12:16:41;2.00;99.90
18047;DHT22;9148;51.454;13.862;2023-03-03T12:19:14;2.00;99.90
18047;DHT22;9148;51.454;13.862;2023-03-03T12:24:46;2.00;99.90
18047;DHT22;9148;51.454;13.862;2023-03-03T12:30:19;2.10;99.90
18047;DHT22;9148;51.454;13.862;2023-03-03T12:33:17;2.00;99.90
18047;DHT22;9148;51.454;13.862;2023-03-03T12:36:20;2.10;99.90
18047;DHT22;9148;51.454;13.862;2023-03-03T12:39:19;2.10;99.90
18047;DHT22;9148;51.454;13.862;2023-03-03T12:42:22;2.00;99.90
18047;DHT22;9148;51.454;13.862;2023-03-03T12:48:20;2.10;99.90
18047;DHT22;9148;51.454;13.862;2023-03-03T12:51:17;2.00;99.90
18047;DHT22;9148;51.454;13.862;2023-03-03T13:09:03;2.30;99.90
18047;DHT22;9148;51.454;13.862;2023-03-03T13:15:14;2.30;99.90
18047;DHT22;9148;51.454;13.862;2023-03-03T13:20:44;2.20;99.90
18047;DHT22;9148;51.454;13.862;2023-03-03T13:26:32;2.40;99.90
18047;DHT22;9148;51.454;13.862;2023-03-03T13:29:29;2.30;99.90
18047;DHT22;9148;51.454;13.862;2023-03-03T13:37:19;2.50;99.90
18047;DHT22;9148;51.454;13.862;2023-03-03T13:40:16;3.40;99.90
18047;DHT22;9148;51.454;13.862;2023-03-03T13:43:09;2.50;99.90
18047;DHT22;9148;51.454;13.862;2023-03-03T13:48:57;2.50;99.90
18047;DHT22;9148;51.454;13.862;2023-03-03T13:55:01;2.50;99.90
18047;DHT22;9148;51.454;13.862;2023-03-03T13:58:10;2.50;99.90
18047;DHT22;9148;51.454;13.862;2023-03-03T14:01:22;2.40;99.90
18047;DHT22;9148;51.454;13.862;2023-03-03T14:07:23;2.50;99.90
18047;DHT22;9148;51.454;13.862;2023-03-03T14:10:24;2.50;99.90
18047;DHT22;9148;51.454;13.862;2023-03-03T14:13:07;2.60;99.90
18047;DHT22;9148;51.454;13.862;2023-03-03T14:16:03;2.50;99.90
18047;DHT22;9148;51.454;13.862;2023-03-03T14:18:35;2.50;99.90
18047;DHT22;9148;51.454;13.862;2023-03-03T14:21:15;2.50;99.90
18047;DHT22;9148;51.454;13.862;2023-03-03T14:26:15;2.50;99.90
18047;DHT22;9148;51.454;13.862;2023-03-03T14:28:43;2.40;99.90
18047;DHT22;9148;51.454;13.862;2023-03-03T14:36:48;2.40;99.90
18047;DHT22;9148;51.454;13.862;2023-03-03T14:39:37;2.40;99.90
18047;DHT22;9148;51.454;13.862;2023-03-03T14:42:37;2.40;99.90
18047;DHT22;9148;51.454;13.862;2023-03-03T14:47:53;2.40;99.90
18047;DHT22;9148;51.454;13.862;2023-03-03T14:50:40;2.40;99.90
18047;DHT22;9148;51.454;13.862;2023-03-03T14:55:50;2.40;99.90
18047;DHT22;9148;51.454;13.862;2023-03-03T14:58:35;2.40;99.90
18047;DHT22;9148;51.454;13.862;2023-03-03T15:04:02;2.50;99.90
18047;DHT22;9148;51.454;13.862;2023-03-03T15:09:37;2.50;99.90
18047;DHT22;9148;51.454;13.862;2023-03-03T15:12:34;2.50;99.90
18047;DHT22;9148;51.454;13.862;2023-03-03T15:17:42;2.40;99.90
18047;DHT22;9148;51.454;13.862;2023-03-03T15:20:23;2.50;99.90
18047;DHT22;9148;51.454;13.862;2023-03-03T15:31:28;2.40;99.90
18047;DHT22;9148;51.454;13.862;2023-03-03T15:40:08;2.40;99.90
18047;DHT22;9148;51.454;13.862;2023-03-03T15:43:23;2.40;99.90
18047;DHT22;9148;51.454;13.862;2023-03-03T15:55:42;2.30;99.90
18047;DHT22;9148;51.454;13.862;2023-03-03T16:01:38;2.60;99.90
18047;DHT22;9148;51.454;13.862;2023-03-03T16:04:10;2.30;99.90
18047;DHT22;9148;51.454;13.862;2023-03-03T16:07:01;2.30;99.90
18047;DHT22;9148;51.454;13.862;2023-03-03T16:19:02;2.40;99.90
18047;DHT22;9148;51.454;13.862;2023-03-03T16:27:42;2.40;99.90
18047;DHT22;9148;51.454;13.862;2023-03-03T16:30:44;2.40;99.90
18047;DHT22;9148;51.454;13.862;2023-03-03T16:33:37;2.40;99.90
18047;DHT22;9148;51.454;13.862;2023-03-03T16:36:23;2.30;99.90
18047;DHT22;9148;51.454;13.862;2023-03-03T16:42:33;2.20;99.90
18047;DHT22;9148;51.454;13.862;2023-03-03T16:45:21;2.30;99.90
18047;DHT22;9148;51.454;13.862;2023-03-03T16:50:40;2.20;99.90
18047;DHT22;9148;51.454;13.862;2023-03-03T16:53:49;2.30;99.90
18047;DHT22;9148;51.454;13.862;2023-03-03T16:56:31;3.00;99.90
18047;DHT22;9148;51.454;13.862;2023-03-03T17:07:42;2.20;99.90
18047;DHT22;9148;51.454;13.862;2023-03-03T17:10:29;2.30;99.90
18047;DHT22;9148;51.454;13.862;2023-03-03T17:13:27;2.10;99.90
18047;DHT22;9148;51.454;13.862;2023-03-03T17:16:26;2.20;99.90
18047;DHT22;9148;51.454;13.862;2023-03-03T17:19:21;3.10;99.90
18047;DHT22;9148;51.454;13.862;2023-03-03T17:24:58;2.30;99.90
18047;DHT22;9148;51.454;13.862;2023-03-03T17:39:07;2.20;99.90
18047;DHT22;9148;51.454;13.862;2023-03-03T17:44:59;2.10;99.90
18047;DHT22;9148;51.454;13.862;2023-03-03T17:47:46;2.20;99.90
18047;DHT22;9148;51.454;13.862;2023-03-03T17:51:10;2.20;99.90
18047;DHT22;9148;51.454;13.862;2023-03-03T17:53:41;2.20;99.90
18047;DHT22;9148;51.454;13.862;2023-03-03T17:56:51;2.10;99.90
18047;DHT22;9148;51.454;13.862;2023-03-03T18:08:15;2.10;99.90
18047;DHT22;9148;51.454;13.862;2023-03-03T18:11:38;2.20;99.90
18047;DHT22;9148;51.454;13.862;2023-03-03T18:22:41;2.10;99.90
18047;DHT22;9148;51.454;13.862;2023-03-03T18:30:52;2.20;99.90
18047;DHT22;9148;51.454;13.862;2023-03-03T18:33:41;2.10;99.90
18047;DHT22;9148;51.454;13.862;2023-03-03T18:38:59;2.30;99.90
18047;DHT22;9148;51.454;13.862;2023-03-03T18:44:29;2.40;99.90
18047;DHT22;9148;51.454;13.862;2023-03-03T18:46:56;2.30;99.90
18047;DHT22;9148;51.454;13.862;2023-03-03T18:50:03;2.30;99.90
18047;DHT22;9148;51.454;13.862;2023-03-03T19:00:44;2.30;99.90
18047;DHT22;9148;51.454;13.862;2023-03-03T19:03:34;2.30;99.90
18047;DHT22;9148;51.454;13.862;2023-03-03T19:06:00;2.40;99.90
18047;DHT22;9148;51.454;13.862;2023-03-03T19:08:52;3.20;99.90
18047;DHT22;9148;51.454;13.862;2023-03-03T19:11:40;2.40;99.90
18047;DHT22;9148;51.454;13.862;2023-03-03T19:22:51;2.30;99.90
18047;DHT22;9148;51.454;13.862;2023-03-03T19:25:26;2.30;99.90
18047;DHT22;9148;51.454;13.862;2023-03-03T19:28:35;2.40;99.90
18047;DHT22;9148;51.454;13.862;2023-03-03T19:31:15;2.30;99.90
18047;DHT22;9148;51.454;13.862;2023-03-03T19:33:54;2.30;99.90
18047;DHT22;9148;51.454;13.862;2023-03-03T19:39:32;2.40;99.90
18047;DHT22;9148;51.454;13.862;2023-03-03T19:45:46;2.30;99.90
18047;DHT22;9148;51.454;13.862;2023-03-03T19:51:43;2.30;99.90
18047;DHT22;9148;51.454;13.862;2023-03-03T19:57:32;2.30;99.90
18047;DHT22;9148;51.454;13.862;2023-03-03T20:15:02;2.30;99.90
18047;DHT22;9148;51.454;13.862;2023-03-03T20:33:02;2.30;99.90
18047;DHT22;9148;51.454;13.862;2023-03-03T20:36:09;2.40;99.90
18047;DHT22;9148;51.454;13.862;2023-03-03T20:44:33;2.40;99.90
18047;DHT22;9148;51.454;13.862;2023-03-03T20:50:26;2.50;99.90
18047;DHT22;9148;51.454;13.862;2023-03-03T20:56:35;2.40;99.90
18047;DHT22;9148;51.454;13.862;2023-03-03T20:59:11;2.40;99.90
18047;DHT22;9148;51.454;13.862;2023-03-03T21:04:42;2.40;99.90
18047;DHT22;9148;51.454;13.862;2023-03-03T21:07:08;2.40;99.90
18047;DHT22;9148;51.454;13.862;2023-03-03T21:09:47;2.30;99.90
18047;DHT22;9148;51.454;13.862;2023-03-03T21:12:26;2.80;99.90
18047;DHT22;9148;51.454;13.862;2023-03-03T21:15:10;2.40;99.90
18047;DHT22;9148;51.454;13.862;2023-03-03T21:17:47;2.00;99.90
18047;DHT22;9148;51.454;13.862;2023-03-03T21:20:33;3.00;99.90
18047;DHT22;9148;51.454;13.862;2023-03-03T21:23:00;2.30;99.90
18047;DHT22;9148;51.454;13.862;2023-03-03T21:28:24;2.30;99.90
18047;DHT22;9148;51.454;13.862;2023-03-03T21:31:04;3.20;99.90
18047;DHT22;9148;51.454;13.862;2023-03-03T21:34:16;2.40;99.90
18047;DHT22;9148;51.454;13.862;2023-03-03T21:36:46;2.40;99.90
18047;DHT22;9148;51.454;13.862;2023-03-03T21:39:30;2.40;99.90
18047;DHT22;9148;51.454;13.862;2023-03-03T21:42:00;2.40;99.90
18047;DHT22;9148;51.454;13.862;2023-03-03T21:44:50;2.40;99.90
18047;DHT22;9148;51.454;13.862;2023-03-03T21:49:46;2.40;99.90
18047;DHT22;9148;51.454;13.862;2023-03-03T21:52:14;2.40;99.90
18047;DHT22;9148;51.454;13.862;2023-03-03T21:54:45;3.40;99.90
18047;DHT22;9148;51.454;13.862;2023-03-03T21:57:12;2.40;99.90
18047;DHT22;9148;51.454;13.862;2023-03-03T21:59:38;2.40;99.90
18047;DHT22;9148;51.454;13.862;2023-03-03T22:02:04;2.30;99.90
18047;DHT22;9148;51.454;13.862;2023-03-03T22:04:30;2.40;99.90
18047;DHT22;9148;51.454;13.862;2023-03-03T22:06:56;2.30;99.90
18047;DHT22;9148;51.454;13.862;2023-03-03T22:09:22;2.40;99.90
18047;DHT22;9148;51.454;13.862;2023-03-03T22:11:48;2.30;99.90
18047;DHT22;9148;51.454;13.862;2023-03-03T22:14:14;2.40;99.90
18047;DHT22;9148;51.454;13.862;2023-03-03T22:16:40;2.30;99.90
18047;DHT22;9148;51.454;13.862;2023-03-03T22:19:06;2.30;99.90
18047;DHT22;9148;51.454;13.862;2023-03-03T22:21:36;2.30;99.90
18047;DHT22;9148;51.454;13.862;2023-03-03T22:24:03;2.30;99.90
18047;DHT22;9148;51.454;13.862;2023-03-03T22:26:29;1.80;99.90